Time;durP1;ratioP1;P1;durP2;ratioP2;P2;SDS_P1;SDS_P2;PMS_P1;PMS_P2;Temp;Humidity;BMP_temperature;BMP_pressure;BME280_temperature;BME280_humidity;BME280_pressure;Samples;Min_cycle;Max_cycle;Signal;HPM_P1;HPM_P2
2021/05/03 00:00:13;;;;;;;9.48;6.43;;;2.60;99.90;;;;;;5095395;28;20050;-65
2021/05/03 00:02:38;;;;;;;13.00;6.90;;;2.60;99.90;;;;;;5093794;28;20479;-65
2021/05/03 00:05:06;;;;;;;15.45;7.60;;;2.50;99.90;;;;;;5095307;28;20051;-64
2021/05/03 00:07:32;;;;;;;15.50;7.32;;;2.50;99.90;;;;;;5093699;28;20051;-65
2021/05/03 00:09:57;;;;;;;13.82;7.32;;;2.40;99.90;;;;;;5095353;28;20078;-64
2021/05/03 00:12:23;;;;;;;12.55;7.03;;;2.40;99.90;;;;;;5095422;28;20461;-65
2021/05/03 00:14:50;;;;;;;11.35;6.80;;;2.40;99.90;;;;;;5094557;28;20020;-64
2021/05/03 00:17:16;;;;;;;13.55;6.97;;;2.30;99.90;;;;;;5094788;28;20081;-64
2021/05/03 00:19:41;;;;;;;13.38;7.20;;;2.30;99.90;;;;;;5095249;28;20020;-65
2021/05/03 00:22:07;;;;;;;11.70;6.97;;;2.30;99.90;;;;;;5094972;28;20385;-65
2021/05/03 00:24:32;;;;;;;15.57;7.72;;;2.30;99.90;;;;;;5095214;28;20024;-65
2021/05/03 00:26:58;;;;;;;12.77;8.20;;;2.30;99.90;;;;;;5095120;28;20358;-65
2021/05/03 00:29:23;;;;;;;14.32;7.65;;;2.40;99.90;;;;;;5093148;28;20020;-65
2021/05/03 00:31:49;;;;;;;17.45;8.25;;;2.40;99.90;;;;;;5095006;28;20372;-65
2021/05/03 00:34:15;;;;;;;14.05;7.82;;;2.40;99.90;;;;;;5095025;28;20027;-64
2021/05/03 00:36:40;;;;;;;12.57;7.75;;;2.40;99.90;;;;;;5094709;28;20020;-65
2021/05/03 00:39:06;;;;;;;13.52;7.40;;;2.30;99.90;;;;;;5094951;28;20020;-65
2021/05/03 00:41:32;;;;;;;13.07;7.70;;;2.30;99.90;;;;;;5094885;28;20131;-65
2021/05/03 00:43:57;;;;;;;15.45;8.10;;;2.30;99.90;;;;;;5093053;28;20032;-65
2021/05/03 00:46:23;;;;;;;14.30;7.50;;;2.20;99.90;;;;;;5094819;28;20016;-65
2021/05/03 00:48:49;;;;;;;16.23;8.68;;;2.20;99.90;;;;;;5095031;28;20076;-65
2021/05/03 00:51:15;;;;;;;12.32;7.93;;;2.20;99.90;;;;;;5094387;28;20021;-65
2021/05/03 00:53:40;;;;;;;13.73;8.02;;;2.10;99.90;;;;;;5094119;28;20066;-64
2021/05/03 00:56:07;;;;;;;15.15;8.40;;;2.10;99.90;;;;;;5094407;28;20479;-65
2021/05/03 00:58:32;;;;;;;12.63;8.43;;;2.10;99.90;;;;;;5094578;28;20106;-65
2021/05/03 01:00:58;;;;;;;14.98;7.90;;;2.10;99.90;;;;;;5094308;28;20112;-65
2021/05/03 01:03:24;;;;;;;14.70;9.02;;;2.10;99.90;;;;;;5093100;28;20027;-65
2021/05/03 01:05:49;;;;;;;14.07;8.10;;;2.00;99.90;;;;;;5093356;28;20024;-65
2021/05/03 01:08:15;;;;;;;17.23;8.52;;;1.90;99.90;;;;;;5094467;28;20099;-65
2021/05/03 01:10:40;;;;;;;14.27;8.10;;;1.90;99.90;;;;;;5094056;28;20032;-65
2021/05/03 01:13:06;;;;;;;13.88;8.63;;;1.90;99.90;;;;;;5092874;28;20024;-64
2021/05/03 01:15:31;;;;;;;14.50;8.70;;;1.90;99.90;;;;;;5094386;28;20028;-64
2021/05/03 01:17:59;;;;;;;16.17;8.95;;;1.90;99.90;;;;;;5094360;28;20020;-64
2021/05/03 01:20:28;;;;;;;16.45;8.65;;;1.80;99.90;;;;;;5092879;28;20020;-65
2021/05/03 01:22:57;;;;;;;16.27;8.43;;;1.80;99.90;;;;;;5092836;28;20100;-64
2021/05/03 01:25:27;;;;;;;18.27;8.63;;;1.80;99.90;;;;;;5093806;28;20047;-65
2021/05/03 01:27:53;;;;;;;14.90;9.25;;;1.80;99.90;;;;;;5092450;28;20112;-65
2021/05/03 01:30:19;;;;;;;17.65;8.55;;;1.80;99.90;;;;;;5093716;28;20159;-65
2021/05/03 01:32:45;;;;;;;17.90;9.25;;;1.80;99.90;;;;;;5094150;28;20027;-64
2021/05/03 01:35:14;;;;;;;16.60;9.30;;;1.80;99.90;;;;;;5093863;28;20020;-64
2021/05/03 01:37:40;;;;;;;15.68;9.32;;;1.80;99.90;;;;;;5092853;28;20400;-65
2021/05/03 01:40:08;;;;;;;16.85;9.77;;;1.90;99.90;;;;;;5093840;28;20046;-65
2021/05/03 01:42:35;;;;;;;16.55;9.98;;;1.90;99.90;;;;;;5094108;28;20074;-64
2021/05/03 01:45:02;;;;;;;17.13;10.27;;;1.90;99.90;;;;;;5075606;28;20028;-65
2021/05/03 01:47:28;;;;;;;15.65;9.35;;;2.10;99.90;;;;;;5092877;28;20028;-64
2021/05/03 01:49:54;;;;;;;17.13;10.38;;;2.10;99.90;;;;;;5093374;28;20028;-65
2021/05/03 01:52:20;;;;;;;17.50;10.10;;;2.10;99.90;;;;;;5092566;28;20031;-65
2021/05/03 01:54:47;;;;;;;17.65;11.23;;;2.10;99.90;;;;;;5093975;28;20020;-64
2021/05/03 01:57:15;;;;;;;19.77;11.50;;;2.20;99.90;;;;;;5093436;28;20028;-65
2021/05/03 01:59:41;;;;;;;22.98;12.00;;;2.30;99.90;;;;;;5093939;28;20027;-65
2021/05/03 02:02:06;;;;;;;27.90;11.68;;;2.40;99.90;;;;;;5093913;28;20020;-65
2021/05/03 02:04:32;;;;;;;18.45;11.45;;;2.40;99.90;;;;;;5093841;28;20039;-65
2021/05/03 02:06:57;;;;;;;19.08;10.48;;;2.50;99.90;;;;;;5093312;28;20086;-65
2021/05/03 02:09:23;;;;;;;16.95;10.18;;;2.60;99.90;;;;;;5093817;28;20024;-65
2021/05/03 02:11:48;;;;;;;14.55;10.05;;;2.50;99.90;;;;;;5093750;28;20052;-65
2021/05/03 02:14:14;;;;;;;16.95;10.43;;;2.50;99.90;;;;;;5093762;28;20028;-65
2021/05/03 02:16:39;;;;;;;18.23;10.35;;;2.40;99.90;;;;;;5093503;28;20431;-65
2021/05/03 02:19:05;;;;;;;20.52;10.60;;;2.30;99.90;;;;;;5093485;28;20418;-64
2021/05/03 02:21:30;;;;;;;17.13;10.52;;;2.20;99.90;;;;;;5093709;28;20500;-64
2021/05/03 02:23:56;;;;;;;18.70;10.18;;;2.10;99.90;;;;;;5093434;28;20062;-64
2021/05/03 02:26:21;;;;;;;17.30;10.20;;;2.00;99.90;;;;;;5093649;28;20030;-65
2021/05/03 02:28:50;;;;;;;16.98;11.05;;;1.90;99.90;;;;;;5093654;28;20028;-64
2021/05/03 02:31:17;;;;;;;16.40;10.63;;;1.90;99.90;;;;;;5092934;28;20079;-64
2021/05/03 02:33:42;;;;;;;18.83;11.07;;;1.90;99.90;;;;;;5093640;28;20342;-65
2021/05/03 02:36:08;;;;;;;17.13;11.02;;;1.80;99.90;;;;;;5093565;28;20020;-65
2021/05/03 02:38:34;;;;;;;18.38;11.10;;;1.80;99.90;;;;;;5095633;28;20030;-64
2021/05/03 02:40:59;;;;;;;19.00;12.63;;;1.80;99.90;;;;;;5096907;28;20028;-65
2021/05/03 02:43:25;;;;;;;20.02;12.20;;;1.80;99.90;;;;;;5096908;28;20035;-64
2021/05/03 02:45:51;;;;;;;20.98;13.10;;;1.80;99.90;;;;;;5097116;28;20483;-64
2021/05/03 02:48:17;;;;;;;21.75;13.50;;;1.80;99.90;;;;;;5096832;28;20461;-64
2021/05/03 02:50:42;;;;;;;21.52;13.73;;;1.80;99.90;;;;;;5096934;28;20070;-64
2021/05/03 02:53:08;;;;;;;22.60;13.73;;;1.90;99.90;;;;;;5096989;28;20059;-64
2021/05/03 02:55:33;;;;;;;24.58;14.20;;;1.90;99.90;;;;;;5096942;28;20025;-65
2021/05/03 02:57:59;;;;;;;22.55;13.73;;;1.80;99.90;;;;;;5096892;28;20399;-64
2021/05/03 03:00:29;;;;;;;22.88;13.73;;;1.80;99.90;;;;;;5096573;28;20031;-64
2021/05/03 03:02:55;;;;;;;24.02;14.63;;;1.80;99.90;;;;;;5095689;28;20432;-65
2021/05/03 03:05:20;;;;;;;22.70;14.38;;;1.80;99.90;;;;;;5095750;28;20044;-64
2021/05/03 03:07:47;;;;;;;26.42;14.60;;;1.80;99.90;;;;;;5078987;28;20051;-64
2021/05/03 03:10:13;;;;;;;23.27;14.77;;;1.80;99.90;;;;;;5096636;28;20440;-65
2021/05/03 03:12:38;;;;;;;24.75;14.88;;;1.80;99.90;;;;;;5096610;28;20028;-64
2021/05/03 03:15:05;;;;;;;28.40;14.38;;;1.80;99.90;;;;;;5096583;28;20020;-64
2021/05/03 03:17:31;;;;;;;26.50;15.30;;;1.70;99.90;;;;;;5095094;28;20069;-65
2021/05/03 03:19:57;;;;;;;28.20;14.70;;;1.80;99.90;;;;;;5095431;28;20016;-64
2021/05/03 03:22:22;;;;;;;29.20;15.57;;;1.70;99.90;;;;;;5096430;28;20457;-64
2021/05/03 03:24:48;;;;;;;30.40;16.85;;;1.80;99.90;;;;;;5095814;28;20062;-64
2021/05/03 03:27:14;;;;;;;29.27;16.98;;;1.80;99.90;;;;;;5094549;28;20031;-64
2021/05/03 03:29:39;;;;;;;27.48;16.38;;;1.90;99.90;;;;;;5095989;28;20048;-65
2021/05/03 03:32:05;;;;;;;31.50;17.33;;;1.90;99.90;;;;;;5096129;28;20036;-64
2021/05/03 03:34:30;;;;;;;28.45;17.10;;;2.00;99.90;;;;;;5095923;28;20027;-65
2021/05/03 03:36:56;;;;;;;30.88;16.70;;;2.00;99.90;;;;;;5096095;28;20020;-64
2021/05/03 03:39:22;;;;;;;27.33;16.63;;;2.10;99.90;;;;;;5096070;28;20024;-64
2021/05/03 03:41:47;;;;;;;34.17;18.40;;;2.10;99.90;;;;;;5095766;28;20032;-65
2021/05/03 03:44:13;;;;;;;30.83;18.25;;;2.20;99.90;;;;;;5095692;28;20043;-64
2021/05/03 03:46:38;;;;;;;30.77;17.60;;;2.30;99.90;;;;;;5095919;28;20099;-64
2021/05/03 03:49:04;;;;;;;28.08;16.98;;;2.40;99.90;;;;;;5095340;28;20031;-64
2021/05/03 03:51:30;;;;;;;30.95;17.85;;;2.50;99.90;;;;;;5095460;28;20122;-65
2021/05/03 03:53:56;;;;;;;32.33;19.35;;;2.50;99.90;;;;;;5095746;28;20032;-65
2021/05/03 03:56:22;;;;;;;29.42;18.02;;;2.50;99.90;;;;;;5095205;28;20106;-64
2021/05/03 03:58:48;;;;;;;30.88;19.35;;;2.50;99.90;;;;;;5095474;28;20359;-65
2021/05/03 04:01:14;;;;;;;37.67;21.83;;;2.50;99.90;;;;;;5094247;28;20031;-65
2021/05/03 04:03:47;;;;;;;38.95;22.17;;;2.40;99.90;;;;;;5095347;28;20495;-64
2021/05/03 04:06:21;;;;;;;34.53;22.25;;;2.50;99.90;;;;;;5095615;28;20077;-65
2021/05/03 04:08:54;;;;;;;39.10;22.48;;;2.40;99.90;;;;;;5095527;28;20082;-65
2021/05/03 04:25:23;;;;;;;40.55;23.95;;;2.60;99.90;;;;;;5111115;28;20115;-65
2021/05/03 04:27:48;;;;;;;35.85;22.67;;;2.70;99.90;;;;;;5110384;28;20106;-65
2021/05/03 04:30:14;;;;;;;38.28;22.17;;;2.80;99.90;;;;;;5111691;28;20048;-65
2021/05/03 04:32:40;;;;;;;36.45;23.35;;;2.90;99.90;;;;;;5111633;28;20088;-65
2021/05/03 04:35:06;;;;;;;32.55;21.38;;;2.90;99.90;;;;;;5111331;28;20016;-65
2021/05/03 04:37:32;;;;;;;33.97;21.42;;;3.00;99.90;;;;;;5109662;28;20546;-65
2021/05/03 04:39:58;;;;;;;32.53;20.35;;;3.10;99.90;;;;;;5110351;28;20020;-65
2021/05/03 04:42:23;;;;;;;36.00;20.58;;;3.20;99.90;;;;;;5110900;28;20065;-65
2021/05/03 04:44:49;;;;;;;35.10;21.00;;;3.30;99.90;;;;;;5111359;28;20050;-64
2021/05/03 04:47:15;;;;;;;34.40;20.63;;;3.40;99.90;;;;;;5111369;28;20039;-64
2021/05/03 04:49:40;;;;;;;34.33;21.90;;;3.50;99.90;;;;;;5109884;28;20031;-65
2021/05/03 04:52:06;;;;;;;29.98;19.67;;;3.60;99.90;;;;;;5110927;28;20035;-64
2021/05/03 04:54:32;;;;;;;32.35;18.95;;;3.80;99.90;;;;;;5111222;28;20020;-65
2021/05/03 04:56:58;;;;;;;29.70;18.73;;;3.90;99.90;;;;;;5110695;28;20027;-64
2021/05/03 04:59:23;;;;;;;31.60;19.52;;;4.00;99.90;;;;;;5109656;28;20024;-64
2021/05/03 05:01:49;;;;;;;34.10;20.02;;;4.10;99.90;;;;;;5110820;28;20032;-65
2021/05/03 05:04:14;;;;;;;34.63;19.52;;;4.10;99.90;;;;;;5110484;28;20031;-65
2021/05/03 05:06:40;;;;;;;30.08;18.23;;;4.20;99.90;;;;;;5109213;28;20034;-65
2021/05/03 05:09:07;;;;;;;29.20;17.63;;;4.30;99.90;;;;;;5110943;28;20104;-65
2021/05/03 05:11:34;;;;;;;32.60;17.55;;;4.40;99.90;;;;;;5110687;28;20452;-66
2021/05/03 05:13:59;;;;;;;31.55;16.88;;;4.50;99.90;;;;;;5110634;28;20024;-64
2021/05/03 05:16:25;;;;;;;24.23;15.10;;;4.70;99.90;;;;;;5092057;28;20093;-64
2021/05/03 05:18:51;;;;;;;28.23;16.58;;;4.90;99.90;;;;;;5110780;28;20024;-65
2021/05/03 05:21:16;;;;;;;25.13;15.32;;;5.10;99.90;;;;;;5110441;28;20364;-65
2021/05/03 05:23:42;;;;;;;29.20;15.48;;;5.40;99.90;;;;;;5106412;28;20035;-65
2021/05/03 05:26:08;;;;;;;22.85;15.07;;;5.90;99.90;;;;;;5096788;28;20024;-65
2021/05/03 05:28:34;;;;;;;21.73;12.18;;;6.30;99.90;;;;;;5096716;28;20027;-65
2021/05/03 05:31:00;;;;;;;21.10;13.65;;;6.40;99.90;;;;;;5096851;28;20020;-65
2021/05/03 05:33:26;;;;;;;22.63;13.38;;;6.40;99.90;;;;;;5096446;28;20073;-65
2021/05/03 05:35:51;;;;;;;24.02;12.70;;;6.70;99.90;;;;;;5096201;28;20496;-65
2021/05/03 05:38:17;;;;;;;18.40;12.00;;;7.10;99.90;;;;;;5096137;28;20032;-65
2021/05/03 05:40:43;;;;;;;16.33;10.88;;;7.90;99.90;;;;;;5096503;28;20027;-65
2021/05/03 05:43:08;;;;;;;16.00;10.30;;;8.70;99.90;;;;;;5096645;28;20028;-65
2021/05/03 05:45:34;;;;;;;20.02;10.90;;;9.30;99.90;;;;;;5096611;28;20031;-65
2021/05/03 05:47:59;;;;;;;18.77;10.38;;;9.70;99.90;;;;;;5096349;28;20035;-65
2021/05/03 05:50:25;;;;;;;21.05;11.20;;;10.10;99.90;;;;;;5096175;28;20032;-65
2021/05/03 05:52:50;;;;;;;19.77;10.88;;;10.70;99.90;;;;;;5094434;28;20035;-65
2021/05/03 05:55:16;;;;;;;22.25;10.30;;;10.80;99.90;;;;;;5096358;28;20377;-65
2021/05/03 05:57:42;;;;;;;17.35;11.40;;;11.00;99.90;;;;;;5096342;28;20028;-65
2021/05/03 06:00:08;;;;;;;25.85;11.23;;;11.10;99.90;;;;;;5096311;28;20016;-65
2021/05/03 06:02:34;;;;;;;16.35;10.05;;;11.40;99.90;;;;;;5096309;28;20055;-65
2021/05/03 06:04:59;;;;;;;18.73;10.57;;;11.50;99.90;;;;;;5094970;28;20067;-66
2021/05/03 06:07:25;;;;;;;18.58;10.07;;;11.70;99.90;;;;;;5095606;28;20031;-66
2021/05/03 06:09:50;;;;;;;14.35;9.10;;;11.90;99.90;;;;;;5094409;28;20024;-65
2021/05/03 06:12:16;;;;;;;13.80;8.18;;;12.00;99.90;;;;;;5094010;28;20041;-66
2021/05/03 06:14:41;;;;;;;14.82;9.13;;;11.50;99.90;;;;;;5095805;28;20081;-66
2021/05/03 06:17:07;;;;;;;21.35;9.80;;;11.70;99.90;;;;;;5095757;28;20381;-65
2021/05/03 06:19:32;;;;;;;15.57;8.60;;;11.80;99.90;;;;;;5095573;28;20369;-65
2021/05/03 06:21:58;;;;;;;14.55;8.00;;;11.70;99.90;;;;;;5095718;28;20161;-65
2021/05/03 06:24:23;;;;;;;14.10;7.90;;;11.50;99.90;;;;;;5095749;28;20027;-66
2021/05/03 06:26:49;;;;;;;13.85;8.25;;;11.70;99.90;;;;;;5095736;28;20105;-66
2021/05/03 06:29:15;;;;;;;13.18;8.30;;;12.10;99.90;;;;;;5095192;28;20020;-66
2021/05/03 06:31:41;;;;;;;12.65;7.70;;;12.30;99.90;;;;;;5095291;28;20523;-66
2021/05/03 06:34:07;;;;;;;13.18;8.32;;;12.50;99.90;;;;;;5094081;28;20021;-66
2021/05/03 06:36:32;;;;;;;10.57;7.90;;;13.10;99.90;;;;;;5094603;28;20465;-66
2021/05/03 06:38:59;;;;;;;14.20;8.05;;;13.20;99.90;;;;;;5085718;28;20029;-65
2021/05/03 06:41:25;;;;;;;17.42;10.25;;;13.30;99.90;;;;;;5074589;28;20024;-66
2021/05/03 06:43:51;;;;;;;11.02;8.20;;;13.30;99.90;;;;;;5077868;28;20347;-66
2021/05/03 06:46:16;;;;;;;11.90;8.77;;;12.90;99.90;;;;;;5076373;28;20068;-66
2021/05/03 06:48:42;;;;;;;11.95;9.05;;;12.70;99.90;;;;;;5091458;28;20061;-66
2021/05/03 06:51:07;;;;;;;12.27;8.25;;;13.00;99.90;;;;;;5090093;28;20073;-66
2021/05/03 06:53:33;;;;;;;12.23;8.55;;;13.00;99.90;;;;;;5093761;28;20024;-66
2021/05/03 06:55:59;;;;;;;12.63;8.00;;;12.10;99.90;;;;;;5092783;28;20473;-66
2021/05/03 06:58:24;;;;;;;11.60;7.75;;;12.80;99.90;;;;;;5094442;28;20027;-66
2021/05/03 07:00:50;;;;;;;11.90;8.25;;;12.70;99.90;;;;;;5091110;28;20452;-66
2021/05/03 07:03:15;;;;;;;12.07;7.85;;;13.20;99.90;;;;;;5091789;28;20039;-66
2021/05/03 07:05:41;;;;;;;14.13;8.15;;;13.00;99.90;;;;;;5089641;28;20024;-65
2021/05/03 07:08:10;;;;;;;16.05;7.75;;;12.60;99.90;;;;;;5088313;28;20031;-66
2021/05/03 07:10:38;;;;;;;14.85;8.32;;;12.50;99.90;;;;;;5093839;28;20020;-66
2021/05/03 07:13:05;;;;;;;14.57;7.60;;;12.90;99.90;;;;;;5092775;28;20047;-66
2021/05/03 07:15:31;;;;;;;11.60;7.45;;;13.00;99.90;;;;;;5091268;28;20073;-66
2021/05/03 07:17:57;;;;;;;9.98;7.05;;;13.00;99.90;;;;;;5087638;28;20477;-66
2021/05/03 07:20:23;;;;;;;10.35;7.45;;;12.90;99.90;;;;;;5092887;28;20104;-66
2021/05/03 07:22:49;;;;;;;11.55;7.13;;;12.10;99.90;;;;;;5090206;28;20021;-65
2021/05/03 07:25:15;;;;;;;10.82;7.43;;;12.70;99.90;;;;;;5083149;28;20488;-66
2021/05/03 07:27:40;;;;;;;11.95;6.63;;;12.40;99.90;;;;;;5073910;28;20029;-66
2021/05/03 07:30:09;;;;;;;9.00;5.65;;;12.60;99.90;;;;;;5074158;28;20110;-66
2021/05/03 07:32:35;;;;;;;11.75;6.20;;;12.50;99.90;;;;;;5091039;28;20031;-66
2021/05/03 07:35:02;;;;;;;9.13;5.93;;;12.40;99.90;;;;;;5085298;28;20098;-66
2021/05/03 07:37:28;;;;;;;11.02;5.93;;;12.50;99.90;;;;;;5073285;28;20021;-66
2021/05/03 07:39:54;;;;;;;11.52;6.75;;;13.20;99.90;;;;;;5080780;28;20081;-66
2021/05/03 07:42:19;;;;;;;9.13;6.07;;;13.30;99.90;;;;;;5088278;28;20073;-66
2021/05/03 07:44:45;;;;;;;8.40;6.10;;;13.30;99.90;;;;;;5090995;28;20028;-66
2021/05/03 07:47:10;;;;;;;12.07;5.85;;;13.80;99.90;;;;;;5093434;28;20020;-66
2021/05/03 07:49:39;;;;;;;9.45;6.18;;;13.50;99.90;;;;;;5091816;28;20036;-65
2021/05/03 07:52:06;;;;;;;10.20;5.50;;;12.80;99.90;;;;;;5093359;28;20027;-65
2021/05/03 07:54:32;;;;;;;7.72;5.40;;;12.40;99.90;;;;;;5082902;28;20471;-66
2021/05/03 07:56:58;;;;;;;9.32;5.68;;;12.80;99.90;;;;;;5073731;28;20029;-65
2021/05/03 07:59:24;;;;;;;10.48;5.70;;;12.70;99.90;;;;;;5074355;28;20017;-66
2021/05/03 08:01:49;;;;;;;8.10;5.75;;;13.10;99.90;;;;;;5073077;28;20070;-65
2021/05/03 08:04:15;;;;;;;10.77;5.50;;;13.40;99.60;;;;;;5079820;28;20056;-65
2021/05/03 08:06:40;;;;;;;8.98;5.43;;;13.50;98.80;;;;;;5091755;28;20099;-66
2021/05/03 08:09:06;;;;;;;9.35;5.50;;;13.50;99.00;;;;;;5091744;28;20016;-66
2021/05/03 08:11:32;;;;;;;8.27;6.53;;;13.20;99.90;;;;;;5092157;28;20032;-66
2021/05/03 08:13:58;;;;;;;13.20;6.30;;;13.50;99.90;;;;;;5088769;28;20044;-66
2021/05/03 08:16:25;;;;;;;9.70;5.97;;;13.60;99.50;;;;;;5082534;28;20022;-66
2021/05/03 08:18:51;;;;;;;9.23;5.35;;;13.80;97.50;;;;;;5089866;28;20020;-66
2021/05/03 08:21:16;;;;;;;7.43;5.55;;;14.00;95.30;;;;;;5073071;28;20445;-66
2021/05/03 08:23:42;;;;;;;7.30;5.60;;;13.70;95.70;;;;;;5073166;28;20029;-66
2021/05/03 08:26:08;;;;;;;9.60;5.97;;;14.70;93.20;;;;;;5073563;28;20091;-66
2021/05/03 08:28:34;;;;;;;8.75;5.30;;;14.50;92.80;;;;;;5088682;28;20043;-66
2021/05/03 08:30:59;;;;;;;9.30;5.70;;;13.70;91.60;;;;;;5091300;28;20454;-66
2021/05/03 08:33:25;;;;;;;9.25;6.18;;;13.30;93.90;;;;;;5090444;28;20366;-65
2021/05/03 08:35:51;;;;;;;9.88;6.18;;;13.60;94.10;;;;;;5078127;28;20036;-66
2021/05/03 08:38:18;;;;;;;11.40;6.43;;;14.40;93.20;;;;;;5073104;28;20013;-66
2021/05/03 08:40:45;;;;;;;9.85;5.95;;;14.60;91.40;;;;;;5093058;28;20092;-66
2021/05/03 08:43:11;;;;;;;8.98;6.55;;;14.60;87.10;;;;;;5074733;28;20032;-66
2021/05/03 08:45:39;;;;;;;9.35;6.50;;;14.10;91.90;;;;;;5093194;28;20030;-66
2021/05/03 08:48:31;;;;;;;8.80;5.68;;;14.80;85.30;;;;;;5091963;28;20404;-66
2021/05/03 08:51:05;;;;;;;8.18;5.40;;;14.60;81.00;;;;;;5092470;28;20024;-66
2021/05/03 08:53:36;;;;;;;8.15;5.78;;;14.90;77.40;;;;;;5089877;28;20028;-66
2021/05/03 08:56:02;;;;;;;9.68;5.68;;;15.80;75.70;;;;;;5092561;28;20527;-66
2021/05/03 08:58:28;;;;;;;9.27;5.78;;;15.60;68.00;;;;;;5078357;28;20052;-66
2021/05/03 09:00:54;;;;;;;9.35;5.68;;;15.70;71.50;;;;;;5078698;28;20020;-66
2021/05/03 09:03:20;;;;;;;9.15;5.90;;;16.20;68.00;;;;;;5088072;28;20048;-67
2021/05/03 09:05:46;;;;;;;7.00;4.95;;;16.40;64.90;;;;;;5074198;28;20315;-66
2021/05/03 09:08:28;;;;;;;8.27;5.97;;;16.30;61.60;;;;;;5075268;28;20043;-65
2021/05/03 09:10:55;;;;;;;8.57;4.63;;;16.00;60.80;;;;;;5074655;28;20024;-66
2021/05/03 09:13:39;;;;;;;7.60;5.35;;;15.80;57.20;;;;;;5084266;28;20128;-66
2021/05/03 09:16:23;;;;;;;11.90;4.88;;;16.20;59.10;;;;;;5090890;28;20033;-66
2021/05/03 09:18:50;;;;;;;7.97;4.95;;;16.40;57.70;;;;;;5086534;28;20115;-66
2021/05/03 09:21:19;;;;;;;8.98;4.68;;;16.40;55.60;;;;;;5092105;28;20020;-66
2021/05/03 09:24:07;;;;;;;7.68;4.70;;;16.40;53.90;;;;;;5091308;28;20515;-66
2021/05/03 09:26:37;;;;;;;7.25;5.80;;;16.60;53.80;;;;;;5093669;28;20085;-67
2021/05/03 09:29:32;;;;;;;8.27;5.35;;;17.70;52.60;;;;;;5094608;28;20032;-66
2021/05/03 09:32:02;;;;;;;5.57;4.50;;;16.80;52.30;;;;;;5081959;28;20032;-66
2021/05/03 09:34:30;;;;;;;6.47;4.97;;;16.60;52.30;;;;;;5074835;28;20012;-66
2021/05/03 09:37:18;;;;;;;6.53;4.63;;;16.60;52.20;;;;;;5091463;28;20021;-66
2021/05/03 09:39:53;;;;;;;8.48;4.13;;;17.00;50.40;;;;;;5093670;28;20020;-66
2021/05/03 09:42:18;;;;;;;10.00;3.35;;;16.90;48.00;;;;;;5089637;28;20042;-67
2021/05/03 09:45:06;;;;;;;7.53;4.15;;;16.70;47.70;;;;;;5083159;28;20473;-66
2021/05/03 09:47:32;;;;;;;5.38;3.22;;;16.70;48.50;;;;;;5079060;28;20515;-66
2021/05/03 09:50:00;;;;;;;5.30;4.00;;;17.00;47.40;;;;;;5073677;28;20028;-66
2021/05/03 09:52:26;;;;;;;7.30;4.18;;;16.40;49.10;;;;;;5089833;28;20032;-66
2021/05/03 09:54:51;;;;;;;9.73;4.05;;;16.50;48.10;;;;;;5094952;28;20385;-66
2021/05/03 09:57:17;;;;;;;6.60;4.10;;;17.20;47.90;;;;;;5091127;28;20054;-66
2021/05/03 09:59:45;;;;;;;5.50;3.80;;;17.80;46.80;;;;;;5094666;28;20488;-66
2021/05/03 10:02:16;;;;;;;5.65;3.47;;;18.10;46.30;;;;;;5071982;28;20032;-66
2021/05/03 10:05:04;;;;;;;5.15;3.88;;;17.40;44.20;;;;;;5083052;28;20028;-66
2021/05/03 10:07:32;;;;;;;5.63;3.47;;;16.50;45.00;;;;;;5094479;28;20028;-66
2021/05/03 10:10:02;;;;;;;4.72;3.50;;;16.40;47.80;;;;;;5094119;28;20028;-66
2021/05/03 10:12:29;;;;;;;4.07;3.05;;;16.80;45.20;;;;;;5093998;28;20379;-66
2021/05/03 10:14:58;;;;;;;4.93;4.00;;;17.40;44.90;;;;;;5093027;28;20111;-66
2021/05/03 10:17:23;;;;;;;5.32;3.60;;;17.90;44.30;;;;;;5094974;28;20491;-66
2021/05/03 10:19:51;;;;;;;5.13;4.05;;;17.60;45.00;;;;;;5094788;28;20028;-66
2021/05/03 10:22:19;;;;;;;5.95;3.80;;;16.90;43.50;;;;;;5093383;28;20469;-66
2021/05/03 10:24:51;;;;;;;8.60;3.72;;;16.60;43.70;;;;;;5095054;28;20385;-66
2021/05/03 10:27:19;;;;;;;7.53;3.75;;;16.30;44.70;;;;;;5094265;28;20020;-66
2021/05/03 10:29:46;;;;;;;5.30;4.07;;;16.40;44.40;;;;;;5092675;28;20020;-66
2021/05/03 10:32:20;;;;;;;7.13;4.00;;;16.90;43.50;;;;;;5093104;28;20024;-66
2021/05/03 10:34:52;;;;;;;6.03;3.72;;;17.00;42.60;;;;;;5092983;28;20490;-66
2021/05/03 10:37:40;;;;;;;6.70;5.20;;;17.10;42.30;;;;;;5082786;28;20033;-66
2021/05/03 10:46:08;;;;;;;10.50;5.60;;;15.30;46.70;;;;;;5110966;27;20459;-65
2021/05/03 10:48:51;;;;;;;11.60;5.93;;;15.20;49.00;;;;;;5110623;28;20019;-66
2021/05/03 10:52:09;;;;;;;10.95;5.32;;;15.40;49.80;;;;;;5108455;28;20063;-66
2021/05/03 10:54:56;;;;;;;10.95;6.10;;;15.80;48.30;;;;;;5109787;28;20098;-66
2021/05/03 11:00:08;;;;;;;10.30;6.38;;;15.80;47.40;;;;;;5110261;27;20347;-66
2021/05/03 11:05:30;;;;;;;11.55;6.53;;;15.80;50.90;;;;;;5110062;27;20352;-66
2021/05/03 11:19:37;;;;;;;8.57;6.43;;;15.60;51.50;;;;;;5109827;27;20359;-66
2021/05/03 11:22:05;;;;;;;10.93;6.40;;;15.30;50.90;;;;;;5095584;28;20051;-66
2021/05/03 11:24:43;;;;;;;9.68;6.63;;;14.90;52.20;;;;;;5095755;28;20024;-66
2021/05/03 11:27:15;;;;;;;10.85;6.43;;;15.40;52.80;;;;;;5091001;28;20035;-66
2021/05/03 11:30:03;;;;;;;7.82;5.95;;;16.40;51.70;;;;;;5091716;28;20028;-66
2021/05/03 11:32:31;;;;;;;8.88;6.32;;;16.70;49.00;;;;;;5100957;28;20393;-67
2021/05/03 11:35:18;;;;;;;8.65;5.80;;;16.70;48.10;;;;;;5097029;28;20116;-66
2021/05/03 11:37:45;;;;;;;9.02;6.10;;;16.50;49.60;;;;;;5109163;28;20028;-66
2021/05/03 11:40:24;;;;;;;9.40;6.20;;;16.00;49.80;;;;;;5098776;28;20020;-66
2021/05/03 11:43:04;;;;;;;10.27;6.35;;;16.00;50.20;;;;;;5090245;28;20024;-66
2021/05/03 11:45:30;;;;;;;8.98;6.32;;;15.50;50.20;;;;;;5089886;28;20103;-66
2021/05/03 11:47:59;;;;;;;12.95;7.35;;;15.30;51.50;;;;;;5099153;28;20024;-66
2021/05/03 11:50:25;;;;;;;11.95;6.60;;;15.00;52.00;;;;;;5101610;28;20063;-66
2021/05/03 11:52:51;;;;;;;9.57;5.97;;;15.20;53.00;;;;;;5103210;28;20548;-66
2021/05/03 11:55:22;;;;;;;14.18;6.60;;;15.40;51.30;;;;;;5103532;28;20054;-66
2021/05/03 11:57:48;;;;;;;8.90;6.32;;;15.60;51.80;;;;;;5088650;28;20103;-66
2021/05/03 12:00:18;;;;;;;10.90;6.43;;;15.40;53.50;;;;;;5094996;28;20043;-66
2021/05/03 12:02:45;;;;;;;9.88;6.05;;;15.10;54.20;;;;;;5098310;28;20012;-66
2021/05/03 12:05:16;;;;;;;12.57;6.65;;;15.10;55.00;;;;;;5095518;28;20023;-66
2021/05/03 12:07:43;;;;;;;8.82;6.70;;;14.90;54.20;;;;;;5107939;28;20030;-66
2021/05/03 12:10:13;;;;;;;10.55;7.43;;;14.50;55.80;;;;;;5107424;28;20019;-66
2021/05/03 12:12:41;;;;;;;10.52;7.53;;;14.20;57.70;;;;;;5099171;28;20124;-66
2021/05/03 12:15:15;;;;;;;17.60;6.95;;;14.30;57.50;;;;;;5091985;28;20020;-66
2021/05/03 12:17:41;;;;;;;11.30;6.90;;;14.50;58.70;;;;;;5107181;28;20074;-66
2021/05/03 12:20:10;;;;;;;15.15;6.70;;;14.70;56.60;;;;;;5109362;28;20027;-67
2021/05/03 12:22:37;;;;;;;12.02;7.07;;;14.70;56.40;;;;;;5097572;28;20489;-67
2021/05/03 12:25:08;;;;;;;8.82;6.47;;;14.90;56.60;;;;;;5089804;28;20107;-67
2021/05/03 12:27:34;;;;;;;12.07;7.05;;;15.40;55.00;;;;;;5097893;28;20070;-65
2021/05/03 12:30:02;;;;;;;7.38;6.40;;;15.00;53.80;;;;;;5098459;28;20093;-66
2021/05/03 12:32:37;;;;;;;8.52;6.32;;;15.00;54.20;;;;;;5094496;28;20384;-67
2021/05/03 12:35:13;;;;;;;8.35;6.38;;;14.90;53.00;;;;;;5094846;28;20536;-66
2021/05/03 12:37:38;;;;;;;11.32;6.43;;;14.50;55.80;;;;;;5087321;28;20028;-66
2021/05/03 12:40:27;;;;;;;11.05;6.82;;;14.30;58.80;;;;;;5074840;28;20116;-66
2021/05/03 12:42:54;;;;;;;14.05;6.57;;;14.00;58.30;;;;;;5075290;28;20161;-67
2021/05/03 12:45:36;;;;;;;9.95;6.32;;;13.90;58.50;;;;;;5075363;28;20384;-66
2021/05/03 12:48:50;;;;;;;11.73;8.18;;;14.10;59.60;;;;;;5084510;28;20064;-66
2021/05/03 12:54:09;;;;;;;10.75;7.63;;;13.90;66.50;;;;;;5089432;28;20032;-66
2021/05/03 12:57:02;;;;;;;11.70;7.18;;;14.30;62.30;;;;;;5080885;28;20107;-66
2021/05/03 12:59:52;;;;;;;10.18;7.35;;;14.70;60.60;;;;;;5083120;28;20450;-66
2021/05/03 13:02:28;;;;;;;10.38;6.82;;;15.10;57.40;;;;;;5074633;28;20025;-66
2021/05/03 13:05:06;;;;;;;11.02;7.25;;;15.20;53.90;;;;;;5073854;28;20035;-66
2021/05/03 13:07:46;;;;;;;11.63;6.63;;;14.90;54.30;;;;;;5092523;28;20032;-66
2021/05/03 13:30:02;;;;;;;10.68;6.57;;;15.90;49.10;;;;;;5163195;27;20054;-66
2021/05/03 13:32:31;;;;;;;8.00;6.10;;;16.10;50.00;;;;;;5159006;27;20032;-66
2021/05/03 13:34:59;;;;;;;9.52;6.68;;;15.50;48.70;;;;;;5165806;27;20027;-66
2021/05/03 13:37:25;;;;;;;10.18;6.30;;;15.40;49.90;;;;;;5153383;27;20019;-66
2021/05/03 13:39:50;;;;;;;8.45;6.57;;;15.40;50.90;;;;;;5150998;27;20532;-66
2021/05/03 13:42:16;;;;;;;8.48;5.32;;;15.20;50.60;;;;;;5151299;27;20026;-66
2021/05/03 13:44:44;;;;;;;7.25;5.13;;;15.10;47.60;;;;;;5149406;27;20422;-66